Time;durP1;ratioP1;P1;durP2;ratioP2;P2;SDS_P1;SDS_P2;PMS_P1;PMS_P2;Temp;Humidity;BMP_temperature;BMP_pressure;BME280_temperature;BME280_humidity;BME280_pressure;Samples;Min_cycle;Max_cycle;Signal;HPM_P1;HPM_P2
2022/10/08 00:00:47;;;;;;;8.25;6.47;;;;;;;;;;5032231;28;20036;-62
2022/10/08 00:03:13;;;;;;;8.88;6.63;;;;;;;;;;5032131;28;20033;-71
2022/10/08 00:05:39;;;;;;;8.70;6.20;;;;;;;;;;5032273;28;20033;-65
2022/10/08 00:08:06;;;;;;;7.47;6.00;;;;;;;;;;5032221;28;20432;-62
2022/10/08 00:10:31;;;;;;;7.20;6.50;;;;;;;;;;5031842;28;20022;-68
2022/10/08 00:12:58;;;;;;;6.93;6.13;;;;;;;;;;5031943;28;20584;-66
2022/10/08 00:15:25;;;;;;;7.05;6.20;;;;;;;;;;5031791;28;20025;-63
2022/10/08 00:17:50;;;;;;;8.38;6.07;;;;;;;;;;5031870;28;20465;-70
2022/10/08 00:20:16;;;;;;;6.85;6.15;;;;;;;;;;5032143;28;20044;-65
2022/10/08 00:22:42;;;;;;;8.23;6.88;;;;;;;;;;5031683;28;20132;-63
2022/10/08 00:25:09;;;;;;;8.20;6.13;;;;;;;;;;5031660;28;20028;-63
2022/10/08 00:27:34;;;;;;;7.68;6.38;;;;;;;;;;5031888;28;20385;-71
2022/10/08 00:30:00;;;;;;;7.50;6.43;;;;;;;;;;5031788;28;20026;-66
2022/10/08 00:32:26;;;;;;;6.88;6.18;;;;;;;;;;5027022;28;20025;-67
2022/10/08 00:34:51;;;;;;;7.07;6.25;;;;;;;;;;5031686;28;20359;-69
2022/10/08 00:37:16;;;;;;;6.97;6.22;;;;;;;;;;5029850;28;20041;-68
2022/10/08 00:39:42;;;;;;;7.82;6.07;;;;;;;;;;5018215;28;20440;-65
2022/10/08 00:42:10;;;;;;;8.40;6.53;;;;;;;;;;5031737;28;20025;-65
2022/10/08 00:44:58;;;;;;;7.78;6.25;;;;;;;;;;5031687;28;20056;-65
2022/10/08 00:47:33;;;;;;;7.82;6.20;;;;;;;;;;5033535;28;20120;-65
2022/10/08 00:50:05;;;;;;;7.47;6.25;;;;;;;;;;5035186;28;20033;-66
2022/10/08 00:52:33;;;;;;;7.97;5.88;;;;;;;;;;5033368;28;20100;-70
2022/10/08 00:55:02;;;;;;;7.80;6.07;;;;;;;;;;5033861;28;20108;-70
2022/10/08 00:57:28;;;;;;;7.75;5.93;;;;;;;;;;5033849;28;20032;-66
2022/10/08 00:59:55;;;;;;;6.80;6.07;;;;;;;;;;5034140;28;20096;-64
2022/10/08 01:02:20;;;;;;;6.93;6.18;;;;;;;;;;5052644;28;20124;-65
2022/10/08 01:04:47;;;;;;;7.55;6.20;;;;;;;;;;5020149;28;20440;-67
2022/10/08 01:07:42;;;;;;;8.35;6.30;;;;;;;;;;5032842;28;20432;-68
2022/10/08 01:10:26;;;;;;;8.25;6.28;;;;;;;;;;5017253;28;20037;-68
2022/10/08 01:13:30;;;;;;;6.82;5.90;;;;;;;;;;5034859;28;20021;-62
2022/10/08 01:16:37;;;;;;;8.30;5.97;;;;;;;;;;5033294;28;20061;-69
2022/10/08 01:19:40;;;;;;;7.75;6.00;;;;;;;;;;5034454;28;20498;-70
2022/10/08 01:22:44;;;;;;;6.50;5.75;;;;;;;;;;5027047;28;20047;-67
2022/10/08 01:25:40;;;;;;;6.65;5.95;;;;;;;;;;5034412;28;20022;-70
2022/10/08 01:28:06;;;;;;;7.10;5.63;;;;;;;;;;5033430;28;20405;-70
2022/10/08 01:30:34;;;;;;;9.50;6.25;;;;;;;;;;5034079;28;20026;-68
2022/10/08 01:33:11;;;;;;;7.18;5.90;;;;;;;;;;5034653;28;20029;-69
2022/10/08 01:35:43;;;;;;;6.05;5.45;;;;;;;;;;5034032;28;20025;-70
2022/10/08 01:38:14;;;;;;;6.97;5.80;;;;;;;;;;5033083;28;20029;-67
2022/10/08 01:40:41;;;;;;;7.30;5.90;;;;;;;;;;5032787;28;20513;-67
2022/10/08 01:43:10;;;;;;;7.43;6.40;;;;;;;;;;5032481;28;20042;-71
2022/10/08 01:45:41;;;;;;;6.97;6.00;;;;;;;;;;5032807;28;20045;-69
2022/10/08 01:48:15;;;;;;;8.93;6.10;;;;;;;;;;5032624;28;20037;-66
2022/10/08 01:50:52;;;;;;;6.60;5.70;;;;;;;;;;5032685;28;20456;-70
2022/10/08 01:53:20;;;;;;;7.88;5.80;;;;;;;;;;5034275;28;20022;-70
2022/10/08 01:55:49;;;;;;;7.43;6.28;;;;;;;;;;5034465;28;20136;-66
2022/10/08 01:58:22;;;;;;;8.83;6.20;;;;;;;;;;5034440;28;20037;-67
2022/10/08 02:00:49;;;;;;;7.22;5.60;;;;;;;;;;5034023;28;20255;-71
2022/10/08 02:03:15;;;;;;;7.78;6.07;;;;;;;;;;5034137;28;20091;-68
2022/10/08 02:05:44;;;;;;;6.45;5.75;;;;;;;;;;5034211;28;20358;-67
2022/10/08 02:08:10;;;;;;;8.73;5.97;;;;;;;;;;5033863;28;20108;-66
2022/10/08 02:10:36;;;;;;;7.72;6.13;;;;;;;;;;5034135;28;20121;-66
2022/10/08 02:13:03;;;;;;;6.60;5.82;;;;;;;;;;5033987;28;20021;-66
2022/10/08 02:15:40;;;;;;;9.07;6.03;;;;;;;;;;5033987;28;20026;-72
2022/10/08 02:18:15;;;;;;;7.43;5.90;;;;;;;;;;5033546;28;20109;-68
2022/10/08 02:20:52;;;;;;;8.48;6.07;;;;;;;;;;5033981;28;20362;-66
2022/10/08 02:23:23;;;;;;;7.45;6.68;;;;;;;;;;5034012;28;20037;-66
2022/10/08 02:25:53;;;;;;;7.65;5.85;;;;;;;;;;5034272;28;20040;-68
2022/10/08 02:28:27;;;;;;;6.13;5.53;;;;;;;;;;5033850;28;20044;-67
2022/10/08 02:31:00;;;;;;;9.93;6.18;;;;;;;;;;5033994;28;20057;-66
2022/10/08 02:33:53;;;;;;;8.23;5.40;;;;;;;;;;5034183;28;20021;-66
2022/10/08 02:36:27;;;;;;;7.80;5.82;;;;;;;;;;5033893;28;20024;-67
2022/10/08 02:38:58;;;;;;;8.15;5.97;;;;;;;;;;5033817;28;20025;-66
2022/10/08 02:41:33;;;;;;;8.25;6.35;;;;;;;;;;5033662;28;20048;-67
2022/10/08 02:44:04;;;;;;;6.15;5.50;;;;;;;;;;5033341;28;20497;-67
2022/10/08 02:46:35;;;;;;;6.78;5.78;;;;;;;;;;5033447;28;20485;-74
2022/10/08 02:49:04;;;;;;;7.32;5.85;;;;;;;;;;5033448;28;20293;-72
2022/10/08 02:51:33;;;;;;;7.25;5.70;;;;;;;;;;5033483;28;20025;-69
2022/10/08 02:54:02;;;;;;;8.83;6.03;;;;;;;;;;5033432;28;20025;-69
2022/10/08 02:56:36;;;;;;;6.60;5.38;;;;;;;;;;5033003;28;20271;-67
2022/10/08 02:59:02;;;;;;;7.15;5.50;;;;;;;;;;5032893;28;20022;-68
2022/10/08 03:01:38;;;;;;;8.60;6.00;;;;;;;;;;5033188;28;20053;-68
2022/10/08 03:04:11;;;;;;;6.97;5.85;;;;;;;;;;5033127;28;20104;-72
2022/10/08 03:06:38;;;;;;;6.80;5.63;;;;;;;;;;5032788;28;20505;-66
2022/10/08 03:09:07;;;;;;;8.52;5.80;;;;;;;;;;5032678;28;20029;-66
2022/10/08 03:11:34;;;;;;;7.85;5.82;;;;;;;;;;5033050;28;20026;-74
2022/10/08 03:14:03;;;;;;;6.90;5.85;;;;;;;;;;5033102;28;20021;-70
2022/10/08 03:16:38;;;;;;;7.13;6.20;;;;;;;;;;5033156;28;20025;-73
2022/10/08 03:19:05;;;;;;;7.25;5.25;;;;;;;;;;5032766;28;20087;-69
2022/10/08 03:21:31;;;;;;;6.38;5.65;;;;;;;;;;5033064;28;20029;-66
2022/10/08 03:23:57;;;;;;;6.80;5.68;;;;;;;;;;5032754;28;20371;-67
2022/10/08 03:26:22;;;;;;;9.00;5.93;;;;;;;;;;5033007;28;20029;-71
2022/10/08 03:28:48;;;;;;;8.00;6.22;;;;;;;;;;5032666;28;20481;-68
2022/10/08 03:31:13;;;;;;;6.45;5.47;;;;;;;;;;5032562;28;20021;-69
2022/10/08 03:33:40;;;;;;;7.43;6.05;;;;;;;;;;5032798;28;20488;-68
2022/10/08 03:36:06;;;;;;;8.40;5.50;;;;;;;;;;5032294;28;20026;-70
2022/10/08 03:38:33;;;;;;;6.78;5.68;;;;;;;;;;5032656;28;20028;-68
2022/10/08 03:40:58;;;;;;;5.93;5.20;;;;;;;;;;5032713;28;20033;-68
2022/10/08 03:43:30;;;;;;;6.15;5.47;;;;;;;;;;5032051;28;20535;-67
2022/10/08 03:45:55;;;;;;;6.40;5.40;;;;;;;;;;5032446;28;20067;-70
2022/10/08 03:48:22;;;;;;;6.30;5.25;;;;;;;;;;5032520;28;20033;-70
2022/10/08 03:51:01;;;;;;;7.43;5.50;;;;;;;;;;5032686;28;20406;-68
2022/10/08 03:53:27;;;;;;;5.97;5.30;;;;;;;;;;5032490;28;20489;-67
2022/10/08 03:55:53;;;;;;;6.00;5.40;;;;;;;;;;5032229;28;20060;-72
2022/10/08 03:58:19;;;;;;;6.10;5.32;;;;;;;;;;5032507;28;20017;-69
2022/10/08 04:00:59;;;;;;;6.05;5.30;;;;;;;;;;5032414;28;20033;-69
2022/10/08 04:03:25;;;;;;;6.10;5.50;;;;;;;;;;5031006;28;20524;-67
2022/10/08 04:05:51;;;;;;;6.20;5.40;;;;;;;;;;5032381;28;20399;-71
2022/10/08 04:08:16;;;;;;;7.05;5.50;;;;;;;;;;5032088;28;20121;-67
2022/10/08 04:10:42;;;;;;;5.82;5.22;;;;;;;;;;5032377;28;20033;-71
2022/10/08 04:13:07;;;;;;;5.53;4.97;;;;;;;;;;5032245;28;20064;-71
2022/10/08 04:15:33;;;;;;;6.40;5.63;;;;;;;;;;5032045;28;20072;-67
2022/10/08 04:17:58;;;;;;;7.88;5.57;;;;;;;;;;5032191;28;20536;-70
2022/10/08 04:20:23;;;;;;;6.25;5.43;;;;;;;;;;5031896;28;20037;-69
2022/10/08 04:22:49;;;;;;;6.30;5.30;;;;;;;;;;5034672;28;20029;-69
2022/10/08 04:25:15;;;;;;;6.80;5.20;;;;;;;;;;5035669;28;20033;-71
2022/10/08 04:27:40;;;;;;;6.30;5.25;;;;;;;;;;5035646;28;20033;-68
2022/10/08 04:30:06;;;;;;;5.85;5.20;;;;;;;;;;5035679;28;20033;-72
2022/10/08 04:32:32;;;;;;;6.72;5.57;;;;;;;;;;5035837;28;20053;-71
2022/10/08 04:34:57;;;;;;;7.20;5.38;;;;;;;;;;5035643;28;20417;-68
2022/10/08 04:37:23;;;;;;;6.80;5.53;;;;;;;;;;5035892;28;20028;-71
2022/10/08 04:39:48;;;;;;;7.78;5.45;;;;;;;;;;5035415;28;20052;-67
2022/10/08 04:42:14;;;;;;;7.60;5.97;;;;;;;;;;5035592;28;20128;-69
2022/10/08 04:44:39;;;;;;;5.97;5.20;;;;;;;;;;5035474;28;20167;-69
2022/10/08 04:47:05;;;;;;;8.05;5.38;;;;;;;;;;5035574;28;20107;-72
2022/10/08 04:49:30;;;;;;;6.25;5.55;;;;;;;;;;5034241;28;20018;-69
2022/10/08 04:51:56;;;;;;;6.85;5.57;;;;;;;;;;5035788;28;20029;-70
2022/10/08 04:54:21;;;;;;;6.45;5.57;;;;;;;;;;5035472;28;20022;-66
2022/10/08 04:56:47;;;;;;;5.85;5.28;;;;;;;;;;5035451;28;20041;-66
2022/10/08 04:59:12;;;;;;;7.00;5.38;;;;;;;;;;5035115;28;20256;-71
2022/10/08 05:01:37;;;;;;;6.78;5.75;;;;;;;;;;5035005;28;20062;-68
2022/10/08 05:04:03;;;;;;;5.75;5.00;;;;;;;;;;5035115;28;20068;-67
2022/10/08 05:06:30;;;;;;;7.22;5.55;;;;;;;;;;5035202;28;20091;-70
2022/10/08 05:08:58;;;;;;;7.53;5.75;;;;;;;;;;5035609;28;20037;-71
2022/10/08 05:11:25;;;;;;;5.78;5.18;;;;;;;;;;5034963;28;20021;-69
2022/10/08 05:13:56;;;;;;;5.47;4.97;;;;;;;;;;5035002;28;20252;-66
2022/10/08 05:16:22;;;;;;;7.07;5.10;;;;;;;;;;5035219;28;20025;-68
2022/10/08 05:18:49;;;;;;;7.38;5.85;;;;;;;;;;5034973;28;20028;-72
2022/10/08 05:21:17;;;;;;;6.30;5.38;;;;;;;;;;5034977;28;20032;-66
2022/10/08 05:23:43;;;;;;;6.68;5.47;;;;;;;;;;5034777;28;20428;-66
2022/10/08 05:26:15;;;;;;;7.82;5.47;;;;;;;;;;5034567;28;20095;-65
2022/10/08 05:28:41;;;;;;;6.15;5.25;;;;;;;;;;5034813;28;20061;-67
2022/10/08 05:31:06;;;;;;;8.50;5.70;;;;;;;;;;5034524;28;20033;-66
2022/10/08 05:33:34;;;;;;;6.97;5.50;;;;;;;;;;5034127;28;20026;-68
2022/10/08 05:36:09;;;;;;;7.15;5.53;;;;;;;;;;5034314;28;20037;-67
2022/10/08 05:38:35;;;;;;;7.28;5.93;;;;;;;;;;5034674;28;20111;-66
2022/10/08 05:41:16;;;;;;;6.93;5.88;;;;;;;;;;5034336;28;20477;-66
2022/10/08 05:43:42;;;;;;;7.85;5.65;;;;;;;;;;5034215;28;20037;-69
2022/10/08 05:46:08;;;;;;;7.47;5.97;;;;;;;;;;5034253;28;20025;-66
2022/10/08 05:48:34;;;;;;;5.93;5.32;;;;;;;;;;5034097;28;20465;-67
2022/10/08 05:51:09;;;;;;;6.68;5.30;;;;;;;;;;5034508;28;20379;-67
2022/10/08 05:53:40;;;;;;;8.02;5.32;;;;;;;;;;5034008;28;20021;-67
2022/10/08 05:56:08;;;;;;;6.22;4.72;;;;;;;;;;5034075;28;20029;-65
2022/10/08 05:58:35;;;;;;;6.68;5.20;;;;;;;;;;5034042;28;20021;-66
2022/10/08 06:01:03;;;;;;;6.28;5.43;;;;;;;;;;5033963;28;20042;-66
2022/10/08 06:03:29;;;;;;;6.95;5.70;;;;;;;;;;5032678;28;20029;-65
2022/10/08 06:06:01;;;;;;;5.93;5.00;;;;;;;;;;5033860;28;20531;-65
2022/10/08 06:08:26;;;;;;;5.32;4.82;;;;;;;;;;5033723;28;20029;-66
2022/10/08 06:10:53;;;;;;;6.63;5.15;;;;;;;;;;5033855;28;20037;-67
2022/10/08 06:13:19;;;;;;;5.82;4.75;;;;;;;;;;5033693;28;20022;-66
2022/10/08 06:15:59;;;;;;;7.22;5.43;;;;;;;;;;5033682;28;20057;-68
2022/10/08 06:18:27;;;;;;;5.97;4.85;;;;;;;;;;5033878;28;20021;-68
2022/10/08 06:20:53;;;;;;;6.72;4.80;;;;;;;;;;5033974;28;20086;-66
2022/10/08 06:23:19;;;;;;;5.90;5.25;;;;;;;;;;5033677;28;20473;-66
2022/10/08 06:25:44;;;;;;;6.60;5.03;;;;;;;;;;5033748;28;20021;-66
2022/10/08 06:28:11;;;;;;;5.38;4.88;;;;;;;;;;5033620;28;20043;-69
2022/10/08 06:30:40;;;;;;;5.85;4.90;;;;;;;;;;5033599;28;20161;-69
2022/10/08 06:33:05;;;;;;;8.60;5.53;;;;;;;;;;5033413;28;20041;-67
2022/10/08 06:35:31;;;;;;;7.22;5.20;;;;;;;;;;5033613;28;20025;-67
2022/10/08 06:37:56;;;;;;;7.50;5.47;;;;;;;;;;5033470;28;20053;-67
2022/10/08 06:40:22;;;;;;;5.47;4.90;;;;;;;;;;5033232;28;20029;-67
2022/10/08 06:42:47;;;;;;;5.95;4.90;;;;;;;;;;5033011;28;20050;-66
2022/10/08 06:45:13;;;;;;;5.25;4.68;;;;;;;;;;5032412;28;20087;-67
2022/10/08 06:47:38;;;;;;;5.47;4.90;;;;;;;;;;5033089;28;20029;-67
2022/10/08 06:50:04;;;;;;;6.57;4.85;;;;;;;;;;5033339;28;20482;-67
2022/10/08 06:52:30;;;;;;;5.88;5.28;;;;;;;;;;5032920;28;20029;-68
2022/10/08 06:54:55;;;;;;;7.57;5.30;;;;;;;;;;5033020;28;20033;-69
2022/10/08 06:57:20;;;;;;;5.45;4.88;;;;;;;;;;5032818;28;20037;-69
2022/10/08 06:59:46;;;;;;;7.75;5.25;;;;;;;;;;5032878;28;20079;-68
2022/10/08 07:02:11;;;;;;;5.57;4.93;;;;;;;;;;5032867;28;20032;-71
2022/10/08 07:04:37;;;;;;;6.63;5.28;;;;;;;;;;5032661;28;20029;-69
2022/10/08 07:07:03;;;;;;;6.10;4.85;;;;;;;;;;5032943;28;20107;-67
2022/10/08 07:09:28;;;;;;;6.53;4.90;;;;;;;;;;5032724;28;20029;-69
2022/10/08 07:11:54;;;;;;;6.60;5.20;;;;;;;;;;5032950;28;20021;-68
2022/10/08 07:14:19;;;;;;;7.40;4.90;;;;;;;;;;5032979;28;20125;-68
2022/10/08 07:16:45;;;;;;;5.53;4.90;;;;;;;;;;5032549;28;20527;-68
2022/10/08 07:19:10;;;;;;;6.50;5.05;;;;;;;;;;5032576;28;20053;-67
2022/10/08 07:21:36;;;;;;;6.63;4.80;;;;;;;;;;5032762;28;20100;-67
2022/10/08 07:24:02;;;;;;;6.45;5.05;;;;;;;;;;5032458;28;20045;-70
2022/10/08 07:26:32;;;;;;;6.65;4.75;;;;;;;;;;5032484;28;20034;-67
2022/10/08 07:29:00;;;;;;;5.85;5.00;;;;;;;;;;5032637;28;20037;-67
2022/10/08 07:31:32;;;;;;;5.07;4.57;;;;;;;;;;5032236;28;20033;-67
2022/10/08 07:34:04;;;;;;;5.07;4.57;;;;;;;;;;5032332;28;20056;-67
2022/10/08 07:36:30;;;;;;;5.05;4.50;;;;;;;;;;5032498;28;20037;-69
2022/10/08 07:39:00;;;;;;;5.95;4.45;;;;;;;;;;5032301;28;20098;-67
2022/10/08 07:41:27;;;;;;;6.78;4.88;;;;;;;;;;5032511;28;20034;-68
2022/10/08 07:43:57;;;;;;;5.80;5.10;;;;;;;;;;5032050;28;20037;-68
2022/10/08 07:46:22;;;;;;;6.85;5.00;;;;;;;;;;5032265;28;20064;-67
2022/10/08 07:48:49;;;;;;;8.65;4.63;;;;;;;;;;5032385;28;20061;-67
2022/10/08 07:51:18;;;;;;;5.40;4.72;;;;;;;;;;5032374;28;20165;-67
2022/10/08 07:53:44;;;;;;;5.35;4.70;;;;;;;;;;5032037;28;20021;-68
2022/10/08 07:56:11;;;;;;;5.25;4.70;;;;;;;;;;5033876;28;20389;-70
2022/10/08 07:58:37;;;;;;;4.90;4.38;;;;;;;;;;5036586;28;20040;-68
2022/10/08 08:01:05;;;;;;;5.00;4.25;;;;;;;;;;5036158;28;20021;-67
2022/10/08 08:03:30;;;;;;;6.15;4.60;;;;;;;;;;5036436;28;20164;-68
2022/10/08 08:06:14;;;;;;;6.53;4.90;;;;;;;;;;5034888;28;20533;-67
2022/10/08 08:08:43;;;;;;;4.88;4.28;;;;;;;;;;5036346;28;20030;-67
2022/10/08 08:11:12;;;;;;;4.88;4.20;;;;;;;;;;5036262;28;20078;-67
2022/10/08 08:13:39;;;;;;;4.85;4.30;;;;;;;;;;5035842;28;20072;-67
2022/10/08 08:16:15;;;;;;;6.32;4.60;;;;;;;;;;5036245;28;20037;-68
2022/10/08 08:18:43;;;;;;;4.60;4.20;;;;;;;;;;5036163;28;20028;-68
2022/10/08 08:21:32;;;;;;;7.43;4.50;;;;;;;;;;5035892;28;20105;-68
2022/10/08 08:24:04;;;;;;;5.03;4.40;;;;;;;;;;5035542;28;20389;-67
2022/10/08 08:26:32;;;;;;;5.32;4.40;;;;;;;;;;5036062;28;20033;-68
2022/10/08 08:29:00;;;;;;;5.45;4.25;;;;;;;;;;5035572;28;20037;-67
2022/10/08 08:31:28;;;;;;;5.22;4.70;;;;;;;;;;5035964;28;20037;-72
2022/10/08 08:33:58;;;;;;;4.85;4.45;;;;;;;;;;5035630;28;20037;-66
2022/10/08 08:36:26;;;;;;;6.63;4.43;;;;;;;;;;5035530;28;20490;-69
2022/10/08 08:38:52;;;;;;;5.07;4.57;;;;;;;;;;5035040;28;20060;-67
2022/10/08 08:41:51;;;;;;;4.95;4.22;;;;;;;;;;5035393;28;20057;-67
2022/10/08 08:44:21;;;;;;;5.07;4.57;;;;;;;;;;5035038;28;20049;-67
2022/10/08 08:46:55;;;;;;;5.88;4.55;;;;;;;;;;5035216;28;20041;-70
2022/10/08 08:49:31;;;;;;;7.40;4.88;;;;;;;;;;5035461;28;20083;-67
2022/10/08 08:52:00;;;;;;;7.35;4.60;;;;;;;;;;5035504;28;20026;-68
2022/10/08 08:54:25;;;;;;;6.47;4.78;;;;;;;;;;5035006;28;20438;-67
2022/10/08 08:56:52;;;;;;;8.38;4.47;;;;;;;;;;5035049;28;20033;-68
2022/10/08 08:59:24;;;;;;;5.05;4.53;;;;;;;;;;5034036;28;20029;-67
2022/10/08 09:01:52;;;;;;;5.97;4.63;;;;;;;;;;5035086;28;20021;-66
2022/10/08 09:04:24;;;;;;;7.63;4.88;;;;;;;;;;5037212;28;20024;-66
2022/10/08 09:06:51;;;;;;;4.97;4.40;;;;;;;;;;5039722;28;20485;-68
2022/10/08 09:09:31;;;;;;;5.07;4.30;;;;;;;;;;5041104;28;20087;-67
2022/10/08 09:11:56;;;;;;;6.40;4.75;;;;;;;;;;5041029;28;20509;-67
2022/10/08 09:14:39;;;;;;;5.10;4.60;;;;;;;;;;5042956;28;20080;-68
2022/10/08 09:17:35;;;;;;;5.00;4.30;;;;;;;;;;5040749;28;20083;-66
2022/10/08 09:20:00;;;;;;;7.70;4.72;;;;;;;;;;5043668;28;20036;-67
2022/10/08 09:22:35;;;;;;;4.88;4.10;;;;;;;;;;5043260;28;20036;-67
2022/10/08 09:25:13;;;;;;;6.50;4.60;;;;;;;;;;5042662;28;20067;-67
2022/10/08 09:27:51;;;;;;;7.15;4.60;;;;;;;;;;5043236;28;20033;-68
2022/10/08 09:30:29;;;;;;;7.57;4.35;;;;;;;;;;5042700;28;20043;-67
2022/10/08 09:32:57;;;;;;;5.05;4.53;;;;;;;;;;5041804;28;20493;-69
2022/10/08 09:35:23;;;;;;;5.03;4.47;;;;;;;;;;5042791;28;20104;-68
2022/10/08 09:37:50;;;;;;;4.55;4.15;;;;;;;;;;5040514;28;20087;-69
2022/10/08 09:40:24;;;;;;;4.60;4.20;;;;;;;;;;5043973;28;20031;-70
2022/10/08 09:43:11;;;;;;;5.47;4.50;;;;;;;;;;5014247;28;20072;-67
2022/10/08 09:45:47;;;;;;;4.47;3.90;;;;;;;;;;5014597;28;20057;-66
2022/10/08 09:48:29;;;;;;;6.13;4.40;;;;;;;;;;5014728;28;20033;-69
2022/10/08 09:51:06;;;;;;;8.73;4.38;;;;;;;;;;5014544;28;20029;-69
2022/10/08 09:53:44;;;;;;;5.30;4.20;;;;;;;;;;5016091;28;20025;-68
2022/10/08 09:56:12;;;;;;;6.40;4.70;;;;;;;;;;5028406;28;20025;-69
2022/10/08 09:58:53;;;;;;;4.80;4.30;;;;;;;;;;5029573;28;20048;-65
2022/10/08 10:01:19;;;;;;;4.57;4.15;;;;;;;;;;5029182;28;20033;-64
2022/10/08 10:03:55;;;;;;;5.88;3.92;;;;;;;;;;5030629;28;20480;-64
2022/10/08 10:06:27;;;;;;;5.35;4.18;;;;;;;;;;5030010;28;20036;-67
2022/10/08 10:08:52;;;;;;;5.45;4.07;;;;;;;;;;5028195;28;20108;-68
2022/10/08 10:11:29;;;;;;;8.80;4.20;;;;;;;;;;5029059;28;20104;-66
2022/10/08 10:13:57;;;;;;;4.70;4.18;;;;;;;;;;5028323;28;20108;-65
2022/10/08 10:16:28;;;;;;;6.10;4.18;;;;;;;;;;5029499;28;20040;-68
2022/10/08 10:18:58;;;;;;;4.63;4.20;;;;;;;;;;5032756;28;20069;-69
2022/10/08 10:21:53;;;;;;;5.10;4.47;;;;;;;;;;5027188;28;20071;-68
2022/10/08 10:24:22;;;;;;;4.45;3.90;;;;;;;;;;5028330;28;20513;-69
2022/10/08 10:26:53;;;;;;;4.80;4.13;;;;;;;;;;5029513;28;20078;-69
2022/10/08 10:29:21;;;;;;;4.68;4.22;;;;;;;;;;5029900;28;20330;-70
2022/10/08 10:32:01;;;;;;;5.82;4.20;;;;;;;;;;5022734;28;20061;-68
2022/10/08 10:34:29;;;;;;;4.95;4.00;;;;;;;;;;5027226;28;20025;-69
2022/10/08 10:36:57;;;;;;;5.03;4.00;;;;;;;;;;5028610;28;20470;-69
2022/10/08 10:39:28;;;;;;;4.80;4.18;;;;;;;;;;5029517;28;20041;-69
2022/10/08 10:41:58;;;;;;;4.72;4.25;;;;;;;;;;5029998;28;20033;-69
2022/10/08 10:44:33;;;;;;;5.20;4.20;;;;;;;;;;5040539;28;20148;-67
2022/10/08 10:47:01;;;;;;;4.93;4.43;;;;;;;;;;5049863;28;20373;-68
2022/10/08 10:49:37;;;;;;;5.55;4.13;;;;;;;;;;5014341;28;20033;-66
2022/10/08 10:52:08;;;;;;;5.10;4.22;;;;;;;;;;5013276;28;20026;-68
2022/10/08 10:54:49;;;;;;;5.00;4.05;;;;;;;;;;5013246;28;20049;-67
2022/10/08 10:57:42;;;;;;;6.80;4.13;;;;;;;;;;5013382;28;20030;-67
2022/10/08 11:00:22;;;;;;;4.82;3.85;;;;;;;;;;5013159;28;20029;-65
2022/10/08 11:02:47;;;;;;;;;;;;;;;;;;5013728;28;20022;-65
2022/10/08 11:05:25;;;;;;;5.70;4.23;;;;;;;;;;5011911;28;19936;-66
2022/10/08 11:08:09;;;;;;;4.68;3.70;;;;;;;;;;5012961;28;20283;-66
2022/10/08 11:10:56;;;;;;;6.45;3.85;;;;;;;;;;5013443;28;20578;-65
2022/10/08 11:13:39;;;;;;;4.25;3.75;;;;;;;;;;5040873;28;20041;-65
2022/10/08 11:16:32;;;;;;;4.65;4.10;;;;;;;;;;5052812;28;20396;-65
2022/10/08 11:18:59;;;;;;;4.68;4.20;;;;;;;;;;5049393;28;20380;-67
2022/10/08 11:21:49;;;;;;;4.78;4.10;;;;;;;;;;5052422;28;20021;-65
2022/10/08 11:24:46;;;;;;;5.15;4.32;;;;;;;;;;5046646;28;20025;-64
2022/10/08 11:27:46;;;;;;;4.32;3.92;;;;;;;;;;5029449;28;20099;-64
2022/10/08 11:30:16;;;;;;;4.40;4.00;;;;;;;;;;5042727;28;20074;-65
2022/10/08 11:32:43;;;;;;;;;;;;;;;;;;5042690;28;20098;-67
2022/10/08 11:35:20;;;;;;;5.63;3.90;;;;;;;;;;5047166;28;19956;-65
2022/10/08 11:37:59;;;;;;;4.30;3.80;;;;;;;;;;5052195;28;20037;-65
2022/10/08 11:40:46;;;;;;;4.07;3.72;;;;;;;;;;5050690;28;20044;-65
2022/10/08 11:43:35;;;;;;;5.40;3.80;;;;;;;;;;5051867;28;20048;-65
2022/10/08 11:46:21;;;;;;;5.80;4.22;;;;;;;;;;5045831;28;20037;-67
2022/10/08 11:48:48;;;;;;;6.00;3.72;;;;;;;;;;5050688;28;20036;-64
2022/10/08 11:51:23;;;;;;;7.07;4.20;;;;;;;;;;5052207;28;20021;-65
2022/10/08 11:54:08;;;;;;;4.53;4.07;;;;;;;;;;5052471;28;20033;-64
2022/10/08 11:56:37;;;;;;;4.32;3.92;;;;;;;;;;5051952;28;20017;-65
2022/10/08 11:59:18;;;;;;;4.28;3.83;;;;;;;;;;5052026;28;20457;-66
2022/10/08 12:01:51;;;;;;;5.10;3.67;;;;;;;;;;5051931;28;20033;-65
2022/10/08 12:04:26;;;;;;;6.70;4.20;;;;;;;;;;5051903;28;20082;-65
2022/10/08 12:07:20;;;;;;;5.93;3.92;;;;;;;;;;5052007;28;20028;-64
2022/10/08 12:10:03;;;;;;;4.97;4.10;;;;;;;;;;5051815;28;20032;-64
2022/10/08 12:12:47;;;;;;;4.63;3.95;;;;;;;;;;5034802;28;20490;-67
2022/10/08 12:15:22;;;;;;;5.85;4.43;;;;;;;;;;5023960;28;20032;-66
2022/10/08 12:18:03;;;;;;;3.80;3.50;;;;;;;;;;5037441;28;20045;-64
2022/10/08 12:20:33;;;;;;;4.13;3.75;;;;;;;;;;5034939;28;20025;-64
2022/10/08 12:23:06;;;;;;;4.80;4.20;;;;;;;;;;5039642;28;20028;-65
2022/10/08 12:25:43;;;;;;;5.03;4.13;;;;;;;;;;5012127;28;20069;-65
2022/10/08 12:28:18;;;;;;;5.53;3.97;;;;;;;;;;5021693;28;20030;-65
2022/10/08 12:30:59;;;;;;;5.90;4.05;;;;;;;;;;5032044;28;20025;-64
2022/10/08 12:33:24;;;;;;;4.55;3.92;;;;;;;;;;5031904;28;20034;-64
2022/10/08 12:36:06;;;;;;;5.45;3.90;;;;;;;;;;5031871;28;20528;-64
2022/10/08 12:38:49;;;;;;;4.68;3.70;;;;;;;;;;5031840;28;20535;-64
2022/10/08 12:41:27;;;;;;;6.50;4.07;;;;;;;;;;5031684;28;20147;-62
2022/10/08 12:44:05;;;;;;;5.60;3.92;;;;;;;;;;5034210;28;20045;-67
2022/10/08 12:46:49;;;;;;;11.85;4.07;;;;;;;;;;5035310;28;20025;-68
2022/10/08 12:49:31;;;;;;;11.73;4.35;;;;;;;;;;5035576;28;20060;-68
2022/10/08 12:51:59;;;;;;;10.90;4.22;;;;;;;;;;5035526;28;20087;-68
2022/10/08 12:54:27;;;;;;;4.80;3.83;;;;;;;;;;5035341;28;20029;-66
2022/10/08 12:56:53;;;;;;;5.15;3.70;;;;;;;;;;5035549;28;20033;-65
2022/10/08 12:59:21;;;;;;;6.10;4.10;;;;;;;;;;5035308;28;20527;-66
2022/10/08 13:01:49;;;;;;;5.75;3.55;;;;;;;;;;5034911;28;20481;-66
2022/10/08 13:04:19;;;;;;;5.30;3.90;;;;;;;;;;5028015;28;20066;-67
2022/10/08 13:06:46;;;;;;;;;;;;;;;;;;5026038;28;20037;-66
2022/10/08 13:09:26;;;;;;;6.88;4.25;;;;;;;;;;5054999;28;19913;-67
2022/10/08 13:11:56;;;;;;;10.30;4.32;;;;;;;;;;5054968;28;20039;-68
2022/10/08 13:14:30;;;;;;;4.63;4.20;;;;;;;;;;5054910;28;20074;-67
2022/10/08 13:16:56;;;;;;;5.65;4.22;;;;;;;;;;5054679;28;20079;-68
2022/10/08 13:19:29;;;;;;;5.32;3.85;;;;;;;;;;5054545;28;20025;-68
2022/10/08 13:22:07;;;;;;;6.07;4.20;;;;;;;;;;5038912;28;20030;-68
2022/10/08 13:24:41;;;;;;;6.20;4.25;;;;;;;;;;5033460;28;20056;-68
2022/10/08 13:27:30;;;;;;;10.48;4.07;;;;;;;;;;5033703;28;20026;-68
2022/10/08 13:30:16;;;;;;;12.07;4.22;;;;;;;;;;5033719;28;20036;-68
2022/10/08 13:32:42;;;;;;;6.03;4.28;;;;;;;;;;5034898;28;20021;-68
2022/10/08 13:35:21;;;;;;;6.30;3.80;;;;;;;;;;5033859;28;20021;-68
2022/10/08 13:37:53;;;;;;;4.55;4.07;;;;;;;;;;5033501;28;20034;-68
2022/10/08 13:40:21;;;;;;;9.02;3.83;;;;;;;;;;5034442;28;20104;-68
2022/10/08 13:42:52;;;;;;;7.78;3.88;;;;;;;;;;5034184;28;20053;-68
2022/10/08 13:45:20;;;;;;;4.50;3.90;;;;;;;;;;5032496;28;20670;-68
2022/10/08 13:47:47;;;;;;;8.57;4.13;;;;;;;;;;5027899;28;20038;-68
2022/10/08 13:50:13;;;;;;;10.48;4.00;;;;;;;;;;5032255;28;20041;-68
2022/10/08 13:52:44;;;;;;;6.40;4.18;;;;;;;;;;5014492;28;20071;-68
2022/10/08 13:55:27;;;;;;;10.18;4.15;;;;;;;;;;5014109;28;20026;-68
2022/10/08 13:58:01;;;;;;;6.68;4.70;;;;;;;;;;5014292;28;20032;-68
2022/10/08 14:00:28;;;;;;;6.22;4.10;;;;;;;;;;5013047;28;20497;-68
2022/10/08 14:02:53;;;;;;;8.27;4.07;;;;;;;;;;5012665;28;20105;-68
2022/10/08 14:05:20;;;;;;;9.27;4.18;;;;;;;;;;5012808;28;20113;-68
2022/10/08 14:07:49;;;;;;;12.55;4.38;;;;;;;;;;5012394;28;20493;-69
2022/10/08 14:10:17;;;;;;;6.75;4.32;;;;;;;;;;5012643;28;20038;-67
2022/10/08 14:12:43;;;;;;;7.80;4.80;;;;;;;;;;5031387;28;20351;-67
2022/10/08 14:15:12;;;;;;;11.57;4.10;;;;;;;;;;5032506;28;20083;-67
2022/10/08 14:17:37;;;;;;;8.15;4.38;;;;;;;;;;5032426;28;20021;-67
2022/10/08 14:20:03;;;;;;;5.80;4.10;;;;;;;;;;5032254;28;20052;-67
2022/10/08 14:22:31;;;;;;;4.65;4.22;;;;;;;;;;5031989;28;20484;-67
2022/10/08 14:24:56;;;;;;;6.55;4.22;;;;;;;;;;5032166;28;20078;-67
2022/10/08 14:27:21;;;;;;;9.48;4.63;;;;;;;;;;5031951;28;20432;-67
2022/10/08 14:29:47;;;;;;;5.20;4.38;;;;;;;;;;5031934;28;20021;-67
2022/10/08 14:32:12;;;;;;;4.38;3.95;;;;;;;;;;5031646;28;20030;-67
2022/10/08 14:34:38;;;;;;;5.65;4.28;;;;;;;;;;5023084;28;20083;-67
2022/10/08 14:37:04;;;;;;;9.85;4.32;;;;;;;;;;5031844;28;20064;-67
2022/10/08 14:39:30;;;;;;;7.75;4.25;;;;;;;;;;5031716;28;20037;-67
2022/10/08 14:41:57;;;;;;;8.77;4.18;;;;;;;;;;5031627;28;20025;-67
2022/10/08 14:44:23;;;;;;;5.40;4.28;;;;;;;;;;5031626;28;20054;-67
2022/10/08 14:46:51;;;;;;;7.03;4.20;;;;;;;;;;5031559;28;20047;-66
2022/10/08 14:49:17;;;;;;;10.68;5.00;;;;;;;;;;5030316;28;20032;-66
2022/10/08 14:51:42;;;;;;;4.78;4.28;;;;;;;;;;5031351;28;20386;-67
2022/10/08 14:54:09;;;;;;;6.65;4.65;;;;;;;;;;5031757;28;20076;-67
2022/10/08 14:56:36;;;;;;;6.72;4.05;;;;;;;;;;5031609;28;20064;-67
2022/10/08 14:59:05;;;;;;;4.85;4.32;;;;;;;;;;5031587;28;20032;-67
2022/10/08 15:01:31;;;;;;;7.13;4.90;;;;;;;;;;5031288;28;20441;-67
2022/10/08 15:03:56;;;;;;;9.07;4.63;;;;;;;;;;5031342;28;20052;-67
2022/10/08 15:06:22;;;;;;;5.57;4.50;;;;;;;;;;5029133;28;20025;-67